Time;durP1;ratioP1;P1;durP2;ratioP2;P2;SDS_P1;SDS_P2;PMS_P1;PMS_P2;Temp;Humidity;BMP_temperature;BMP_pressure;BME280_temperature;BME280_humidity;BME280_pressure;Samples;Min_cycle;Max_cycle;Signal;HPM_P1;HPM_P2
2023/10/05 00:02:08;;;;;;;0.85;0.80;;;13.30;99.90;;;;;;5053434;28;20182;-67
2023/10/05 00:04:41;;;;;;;0.98;0.70;;;13.30;99.90;;;;;;5053079;28;20045;-67
2023/10/05 00:07:19;;;;;;;2.38;1.02;;;13.30;99.90;;;;;;5053312;28;20041;-67
2023/10/05 00:09:45;;;;;;;2.45;0.80;;;13.30;99.90;;;;;;5053313;28;20045;-67
2023/10/05 00:12:18;;;;;;;1.13;0.90;;;13.30;99.90;;;;;;5053077;28;20127;-68
2023/10/05 00:14:48;;;;;;;2.28;0.90;;;13.30;99.90;;;;;;5035361;28;20041;-67
2023/10/05 00:17:18;;;;;;;1.00;0.88;;;13.30;99.90;;;;;;5035031;28;20106;-67
2023/10/05 00:19:44;;;;;;;2.88;0.90;;;13.30;99.90;;;;;;5052903;28;20041;-67
2023/10/05 00:22:11;;;;;;;1.10;0.60;;;13.20;99.90;;;;;;5052851;28;20102;-67
2023/10/05 00:24:37;;;;;;;1.52;1.02;;;13.30;99.90;;;;;;5053075;28;20435;-67
2023/10/05 00:27:05;;;;;;;0.85;0.80;;;13.20;99.90;;;;;;5052724;28;20099;-67
2023/10/05 00:29:45;;;;;;;1.20;0.98;;;13.30;99.90;;;;;;5052256;28;20037;-67
2023/10/05 00:32:15;;;;;;;1.90;0.85;;;13.30;99.90;;;;;;5034917;28;20114;-67
2023/10/05 00:34:42;;;;;;;2.25;1.42;;;13.30;99.90;;;;;;5034730;28;20052;-67
2023/10/05 00:37:09;;;;;;;0.70;0.70;;;13.30;99.90;;;;;;5035228;28;20516;-67
2023/10/05 00:39:36;;;;;;;1.25;1.00;;;13.30;99.90;;;;;;5052865;28;20116;-67
2023/10/05 00:44:30;;;;;;;1.25;0.82;;;13.30;99.90;;;;;;5052862;28;20041;-67
2023/10/05 00:46:59;;;;;;;1.30;0.75;;;13.40;99.90;;;;;;5034702;28;20095;-67
2023/10/05 00:49:30;;;;;;;1.42;1.00;;;13.40;99.90;;;;;;5052911;28;20663;-67
2023/10/05 00:52:14;;;;;;;1.23;0.60;;;13.40;99.90;;;;;;5034847;28;20041;-66
2023/10/05 00:54:44;;;;;;;2.33;0.95;;;13.40;99.90;;;;;;5034907;28;20029;-66
2023/10/05 00:57:14;;;;;;;1.33;1.05;;;13.40;99.90;;;;;;5034675;28;20132;-65
2023/10/05 00:59:46;;;;;;;1.75;0.80;;;13.50;99.90;;;;;;5052447;28;20072;-66
2023/10/05 01:02:16;;;;;;;1.60;0.73;;;13.40;99.90;;;;;;5052798;28;20087;-66
2023/10/05 01:07:18;;;;;;;0.90;0.70;;;13.50;99.90;;;;;;5052289;28;20049;-65
2023/10/05 01:12:36;;;;;;;1.58;0.80;;;13.50;99.90;;;;;;5052681;28;20110;-66
2023/10/05 01:15:06;;;;;;;2.30;1.02;;;13.50;99.90;;;;;;5034775;28;20051;-66
2023/10/05 01:17:32;;;;;;;0.82;0.70;;;13.50;99.90;;;;;;5052598;28;20041;-66
2023/10/05 01:20:12;;;;;;;1.17;1.08;;;13.50;99.90;;;;;;5052267;28;20040;-66
2023/10/05 01:22:40;;;;;;;1.15;1.00;;;13.60;99.90;;;;;;5052636;28;20190;-67
2023/10/05 01:25:12;;;;;;;1.05;0.95;;;13.60;99.90;;;;;;5052499;28;20041;-67
2023/10/05 01:27:37;;;;;;;1.63;0.90;;;13.50;99.90;;;;;;5052435;28;20626;-67
2023/10/05 01:30:04;;;;;;;1.63;0.95;;;14.40;99.90;;;;;;5052521;28;20185;-67
2023/10/05 01:32:29;;;;;;;2.50;1.13;;;13.50;99.90;;;;;;5052135;28;20037;-67
2023/10/05 01:34:55;;;;;;;1.80;0.95;;;13.50;99.90;;;;;;5017734;28;20053;-67
2023/10/05 01:37:26;;;;;;;2.38;0.80;;;13.50;99.90;;;;;;5052431;28;20400;-67
2023/10/05 01:39:52;;;;;;;0.60;0.57;;;13.50;99.90;;;;;;5052468;28;20032;-67
2023/10/05 01:42:18;;;;;;;1.77;0.75;;;13.50;99.90;;;;;;5055376;28;20466;-67
2023/10/05 01:44:47;;;;;;;1.33;0.82;;;13.50;99.90;;;;;;5055715;28;20036;-67
2023/10/05 01:47:17;;;;;;;2.03;0.90;;;13.80;99.90;;;;;;5021429;28;20481;-67
2023/10/05 01:49:46;;;;;;;2.35;1.17;;;13.50;99.90;;;;;;5055909;28;20132;-67
2023/10/05 01:52:16;;;;;;;1.40;1.00;;;13.50;99.90;;;;;;5055848;28;20079;-67
2023/10/05 01:54:43;;;;;;;1.52;0.77;;;13.50;99.90;;;;;;5055784;28;20063;-67
2023/10/05 01:57:09;;;;;;;1.35;0.80;;;13.50;99.90;;;;;;5055677;28;20052;-67
2023/10/05 01:59:37;;;;;;;2.45;0.93;;;13.50;99.90;;;;;;5055729;28;20044;-67
2023/10/05 02:02:26;;;;;;;0.77;0.75;;;13.90;99.90;;;;;;5037678;28;20048;-66
2023/10/05 02:04:49;;;;;;;1.10;0.90;;;13.50;99.90;;;;;;5054466;28;20087;-66
2023/10/05 02:07:15;;;;;;;2.05;0.85;;;13.50;99.90;;;;;;5055518;28;20045;-66
2023/10/05 02:09:41;;;;;;;2.22;0.90;;;13.50;99.90;;;;;;5037631;28;20398;-66
2023/10/05 02:12:07;;;;;;;2.35;1.00;;;13.50;99.90;;;;;;5055174;28;20119;-66
2023/10/05 02:14:34;;;;;;;1.48;0.82;;;13.50;99.90;;;;;;5037294;28;20119;-66
2023/10/05 02:17:00;;;;;;;1.05;0.93;;;13.50;99.90;;;;;;5037495;28;20048;-65
2023/10/05 02:19:26;;;;;;;1.20;0.73;;;13.50;99.90;;;;;;5055306;28;20040;-66
2023/10/05 02:21:54;;;;;;;1.20;0.80;;;13.70;99.90;;;;;;5055045;28;20048;-66
2023/10/05 02:24:25;;;;;;;0.75;0.70;;;13.50;99.90;;;;;;5055260;28;20075;-66
2023/10/05 02:29:31;;;;;;;1.83;1.02;;;13.50;99.90;;;;;;5036954;28;20052;-66
2023/10/05 02:37:00;;;;;;;2.03;0.80;;;13.50;99.90;;;;;;5054933;28;20491;-66
2023/10/05 02:39:26;;;;;;;1.42;1.00;;;13.40;99.90;;;;;;5054650;28;20041;-66
2023/10/05 02:41:54;;;;;;;1.50;0.80;;;13.50;99.90;;;;;;5054878;28;20448;-66
2023/10/05 02:44:30;;;;;;;2.17;1.23;;;13.50;99.90;;;;;;5054823;28;20083;-66
2023/10/05 02:46:56;;;;;;;2.20;1.15;;;13.60;99.90;;;;;;5054520;28;20544;-66
2023/10/05 02:49:25;;;;;;;1.05;0.75;;;13.60;99.90;;;;;;5036655;28;20075;-66
2023/10/05 02:51:52;;;;;;;2.03;0.90;;;13.50;99.90;;;;;;5054511;28;20041;-66
2023/10/05 02:54:22;;;;;;;2.15;0.90;;;13.60;99.90;;;;;;5054173;28;20045;-66
2023/10/05 02:56:48;;;;;;;1.50;1.13;;;13.60;99.90;;;;;;5054610;28;20056;-66
2023/10/05 02:59:15;;;;;;;1.92;0.82;;;13.60;99.90;;;;;;5054544;28;20484;-66
2023/10/05 03:01:43;;;;;;;1.30;0.88;;;13.60;99.90;;;;;;5036381;28;20040;-66
2023/10/05 03:06:40;;;;;;;1.55;0.82;;;13.50;99.90;;;;;;5054352;28;20037;-66
2023/10/05 03:09:07;;;;;;;2.20;0.82;;;13.60;99.90;;;;;;5054423;28;20408;-66
2023/10/05 03:11:46;;;;;;;2.03;1.17;;;13.60;99.90;;;;;;5054391;28;20492;-67
2023/10/05 03:14:12;;;;;;;1.30;0.98;;;13.60;99.90;;;;;;5054262;28;20048;-67
2023/10/05 03:16:46;;;;;;;1.40;0.95;;;13.60;99.90;;;;;;5036087;28;20052;-67
2023/10/05 03:19:14;;;;;;;1.73;1.00;;;13.60;99.90;;;;;;5036071;28;20373;-67
2023/10/05 03:21:40;;;;;;;2.00;1.13;;;13.30;99.90;;;;;;5054115;28;20102;-67
2023/10/05 03:24:13;;;;;;;1.48;1.30;;;13.60;99.90;;;;;;5036022;28;20049;-67
2023/10/05 03:26:39;;;;;;;1.15;0.95;;;13.50;99.90;;;;;;5053628;28;20037;-67
2023/10/05 03:29:06;;;;;;;1.13;0.80;;;13.50;99.90;;;;;;5054020;28;20041;-67
2023/10/05 03:31:36;;;;;;;1.77;1.10;;;13.50;99.90;;;;;;5053903;28;20037;-67
2023/10/05 03:34:05;;;;;;;1.35;1.25;;;13.50;99.90;;;;;;5035811;28;20068;-67
2023/10/05 03:36:33;;;;;;;2.47;1.20;;;13.50;99.90;;;;;;5053873;28;20037;-67
2023/10/05 03:39:03;;;;;;;1.33;0.88;;;13.50;99.90;;;;;;5053557;28;20041;-67
2023/10/05 03:41:28;;;;;;;3.00;1.20;;;13.40;99.90;;;;;;5053836;28;20044;-67
2023/10/05 03:44:01;;;;;;;2.58;1.05;;;13.40;99.90;;;;;;5053858;28;20032;-66
2023/10/05 03:46:27;;;;;;;2.80;1.25;;;13.40;99.90;;;;;;5053318;28;20088;-66
2023/10/05 03:48:59;;;;;;;1.10;0.90;;;13.40;99.90;;;;;;5035591;28;20072;-66
2023/10/05 03:51:26;;;;;;;1.65;1.10;;;13.50;99.90;;;;;;5035828;28;20087;-66
2023/10/05 03:53:52;;;;;;;1.10;0.90;;;13.40;99.90;;;;;;5053311;28;20067;-66
2023/10/05 03:56:19;;;;;;;0.85;0.73;;;13.50;99.90;;;;;;5053331;28;20059;-66
2023/10/05 03:58:46;;;;;;;1.23;0.90;;;13.50;99.90;;;;;;5053227;28;20045;-66
2023/10/05 04:01:12;;;;;;;2.22;1.10;;;13.40;99.90;;;;;;5053454;28;20370;-66
2023/10/05 04:03:43;;;;;;;1.17;0.80;;;13.50;99.90;;;;;;5053387;28;20097;-66
2023/10/05 04:06:17;;;;;;;2.75;1.17;;;13.40;99.90;;;;;;5053359;28;20115;-66
2023/10/05 04:08:57;;;;;;;0.80;0.80;;;13.40;99.90;;;;;;5053327;28;20037;-66
2023/10/05 04:11:27;;;;;;;1.17;1.05;;;13.50;99.90;;;;;;5053077;28;20112;-66
2023/10/05 04:13:54;;;;;;;2.50;1.40;;;13.50;99.90;;;;;;5035230;28;20120;-66
2023/10/05 04:16:33;;;;;;;1.63;1.10;;;13.50;99.90;;;;;;5053248;28;20040;-66
2023/10/05 04:19:00;;;;;;;1.48;0.90;;;13.50;99.90;;;;;;5052963;28;20037;-66
2023/10/05 04:21:26;;;;;;;2.10;1.30;;;13.50;99.90;;;;;;5035031;28;20043;-66
2023/10/05 04:23:52;;;;;;;1.02;0.90;;;13.50;99.90;;;;;;5053233;28;20179;-66
2023/10/05 04:26:19;;;;;;;3.33;1.52;;;13.50;99.90;;;;;;5052652;28;20041;-66
2023/10/05 04:28:52;;;;;;;0.98;0.85;;;13.50;99.90;;;;;;5034874;28;20045;-66
2023/10/05 04:31:25;;;;;;;1.50;0.90;;;13.50;99.90;;;;;;5053059;28;20045;-66
2023/10/05 04:33:55;;;;;;;1.83;1.15;;;13.50;99.90;;;;;;5052714;28;20056;-66
2023/10/05 04:36:22;;;;;;;1.27;0.90;;;13.50;99.90;;;;;;5053032;28;20440;-66
2023/10/05 04:38:50;;;;;;;1.02;0.65;;;13.50;99.90;;;;;;5034796;28;20491;-65
2023/10/05 04:41:19;;;;;;;0.70;0.70;;;13.50;99.90;;;;;;5052618;28;20118;-67
2023/10/05 04:43:45;;;;;;;1.35;0.73;;;13.60;99.90;;;;;;5034688;28;20041;-67
2023/10/05 04:46:11;;;;;;;1.80;1.08;;;13.50;99.90;;;;;;5052819;28;20044;-67
2023/10/05 04:48:39;;;;;;;0.95;0.80;;;13.40;99.90;;;;;;5052903;28;20397;-67
2023/10/05 04:51:05;;;;;;;1.17;0.93;;;13.50;99.90;;;;;;5052594;28;20033;-67
2023/10/05 04:53:32;;;;;;;1.85;0.95;;;13.50;99.90;;;;;;5052861;28;20473;-65
2023/10/05 04:56:11;;;;;;;1.00;0.82;;;13.80;99.90;;;;;;5034935;28;20045;-65
2023/10/05 04:58:53;;;;;;;2.78;1.52;;;13.50;99.90;;;;;;5052787;28;20060;-65
2023/10/05 05:01:29;;;;;;;1.33;1.00;;;13.50;99.90;;;;;;5052789;28;20036;-65
2023/10/05 05:03:56;;;;;;;2.53;1.45;;;13.40;99.90;;;;;;5052756;28;20045;-66
2023/10/05 05:06:25;;;;;;;1.90;1.10;;;13.40;99.90;;;;;;5034625;28;20124;-65
2023/10/05 05:08:51;;;;;;;0.93;0.70;;;13.50;99.90;;;;;;5052585;28;20048;-67
2023/10/05 05:11:21;;;;;;;3.25;1.35;;;13.50;99.90;;;;;;5034900;28;20243;-68
2023/10/05 05:13:48;;;;;;;1.15;0.82;;;13.50;99.90;;;;;;5052647;28;20048;-66
2023/10/05 05:16:17;;;;;;;2.45;1.00;;;13.50;99.90;;;;;;5054178;28;20460;-68
2023/10/05 05:18:43;;;;;;;1.15;0.90;;;13.50;99.90;;;;;;5056566;28;20041;-72
2023/10/05 05:21:11;;;;;;;2.38;0.90;;;13.50;99.90;;;;;;5038366;28;20124;-65
2023/10/05 05:23:37;;;;;;;3.22;1.42;;;13.50;99.90;;;;;;5038214;28;20045;-65
2023/10/05 05:26:09;;;;;;;1.50;0.93;;;13.50;99.90;;;;;;5038104;28;20049;-65
2023/10/05 05:28:34;;;;;;;0.85;0.77;;;13.50;99.90;;;;;;5056391;28;20745;-66
2023/10/05 05:31:16;;;;;;;0.70;0.70;;;13.50;99.90;;;;;;5056281;28;20048;-65
2023/10/05 05:33:44;;;;;;;2.05;0.90;;;13.50;99.90;;;;;;5034728;28;20049;-67
2023/10/05 05:36:11;;;;;;;2.50;0.90;;;13.50;99.90;;;;;;5036269;28;20052;-67
2023/10/05 05:38:40;;;;;;;1.50;1.20;;;13.50;99.90;;;;;;5036144;28;20045;-69
2023/10/05 05:41:12;;;;;;;1.52;0.98;;;13.50;99.90;;;;;;5036152;28;20045;-67
2023/10/05 05:43:41;;;;;;;2.33;1.15;;;13.50;99.90;;;;;;5036157;28;20132;-67
2023/10/05 05:46:13;;;;;;;1.48;0.82;;;13.50;99.90;;;;;;5035963;28;20087;-73
2023/10/05 05:48:43;;;;;;;2.03;1.00;;;13.40;99.90;;;;;;5034522;28;20037;-67
2023/10/05 05:51:15;;;;;;;2.58;1.25;;;13.50;99.90;;;;;;5035751;28;20120;-66
2023/10/05 05:53:44;;;;;;;2.45;1.08;;;13.50;99.90;;;;;;5035934;28;20123;-66
2023/10/05 05:56:19;;;;;;;1.15;1.02;;;13.40;99.90;;;;;;5034349;28;20053;-66
2023/10/05 05:58:50;;;;;;;0.98;0.80;;;13.50;99.90;;;;;;5035510;28;20148;-67
2023/10/05 06:01:16;;;;;;;1.55;0.77;;;13.40;99.90;;;;;;5035537;28;20049;-68
2023/10/05 06:03:49;;;;;;;1.20;0.90;;;13.40;99.90;;;;;;5035785;28;20045;-66
2023/10/05 06:06:20;;;;;;;8.25;1.80;;;13.40;99.90;;;;;;5035569;28;20046;-66
2023/10/05 06:08:49;;;;;;;1.95;1.00;;;13.40;99.90;;;;;;5035674;28;20456;-66
2023/10/05 06:11:15;;;;;;;2.13;1.40;;;13.40;99.90;;;;;;5035585;28;20545;-66
2023/10/05 06:13:45;;;;;;;1.27;1.08;;;13.40;99.90;;;;;;5034006;28;20125;-66
2023/10/05 06:16:11;;;;;;;1.88;1.13;;;13.40;99.90;;;;;;5035472;28;20048;-66
2023/10/05 06:18:37;;;;;;;1.20;0.95;;;13.40;99.90;;;;;;5035500;28;20040;-66
2023/10/05 06:21:04;;;;;;;2.55;1.15;;;13.50;99.90;;;;;;5035393;28;20041;-66
2023/10/05 06:23:32;;;;;;;2.92;1.33;;;13.60;99.90;;;;;;5033844;28;20048;-66
2023/10/05 06:25:59;;;;;;;2.92;1.20;;;13.60;99.90;;;;;;5034922;28;20049;-66
2023/10/05 06:28:25;;;;;;;1.52;0.90;;;13.60;99.90;;;;;;5034015;28;20504;-66
2023/10/05 06:30:52;;;;;;;1.45;0.90;;;13.70;99.90;;;;;;5033605;28;20116;-65
2023/10/05 06:33:19;;;;;;;1.95;1.23;;;13.50;99.90;;;;;;5038176;28;20128;-66
2023/10/05 06:35:46;;;;;;;2.25;1.20;;;13.50;99.90;;;;;;5055009;28;20439;-71
2023/10/05 06:38:11;;;;;;;3.10;1.33;;;13.90;99.90;;;;;;5036767;28;20411;-67
2023/10/05 06:40:37;;;;;;;1.83;1.23;;;13.80;99.90;;;;;;5054692;28;20079;-66
2023/10/05 06:43:05;;;;;;;1.38;1.23;;;13.90;99.90;;;;;;5054966;28;20062;-65
2023/10/05 06:45:31;;;;;;;2.05;1.17;;;14.00;99.90;;;;;;5054402;28;20049;-66
2023/10/05 06:47:57;;;;;;;2.22;1.08;;;14.50;99.90;;;;;;5054849;28;20033;-66
2023/10/05 06:50:22;;;;;;;1.15;0.80;;;14.60;99.90;;;;;;5054789;28;20080;-65
2023/10/05 06:52:48;;;;;;;1.70;1.15;;;14.10;99.90;;;;;;5036880;28;20389;-66
2023/10/05 06:55:17;;;;;;;1.33;1.20;;;14.10;99.90;;;;;;5054698;28;20102;-66
2023/10/05 06:57:43;;;;;;;2.63;1.20;;;14.10;99.90;;;;;;5054392;28;20047;-66
2023/10/05 07:00:15;;;;;;;1.30;0.95;;;14.70;99.90;;;;;;5054285;28;20037;-66
2023/10/05 07:02:41;;;;;;;2.10;0.90;;;14.20;99.90;;;;;;5054250;28;20102;-66
2023/10/05 07:05:08;;;;;;;1.90;0.93;;;14.20;99.90;;;;;;5054409;28;20037;-66
2023/10/05 07:07:35;;;;;;;1.95;0.90;;;14.20;99.90;;;;;;5036084;28;20041;-66
2023/10/05 07:10:03;;;;;;;2.35;1.42;;;14.20;99.90;;;;;;5054380;28;20072;-66
2023/10/05 07:12:30;;;;;;;1.60;0.95;;;14.20;99.90;;;;;;5036251;28;20400;-65
2023/10/05 07:14:56;;;;;;;1.60;0.88;;;14.10;99.90;;;;;;5054297;28;20508;-66
2023/10/05 07:17:22;;;;;;;1.25;0.82;;;14.30;99.90;;;;;;5053966;28;20045;-66
2023/10/05 07:19:49;;;;;;;2.28;0.90;;;14.40;99.90;;;;;;5054144;28;20049;-66
2023/10/05 07:22:16;;;;;;;2.10;1.00;;;14.50;99.90;;;;;;5054218;28;20049;-68
2023/10/05 07:24:42;;;;;;;1.05;0.70;;;14.50;99.90;;;;;;5035921;28;20090;-65
2023/10/05 07:27:07;;;;;;;1.80;1.33;;;14.60;99.90;;;;;;5053647;28;20049;-66
2023/10/05 07:29:34;;;;;;;1.20;0.80;;;14.60;99.90;;;;;;5053744;28;20044;-66
2023/10/05 07:32:00;;;;;;;2.15;1.27;;;14.60;99.90;;;;;;5053962;28;20041;-66
2023/10/05 07:34:26;;;;;;;2.92;1.58;;;14.70;99.90;;;;;;5053564;28;20061;-66
2023/10/05 07:36:54;;;;;;;1.98;1.00;;;14.70;99.90;;;;;;5035737;28;20053;-66
2023/10/05 07:39:23;;;;;;;2.95;1.30;;;14.70;99.90;;;;;;5035385;28;20045;-66
2023/10/05 07:41:49;;;;;;;5.13;1.38;;;14.80;99.90;;;;;;5035553;28;20049;-66
2023/10/05 07:44:15;;;;;;;1.02;0.82;;;14.80;99.90;;;;;;5035767;28;20075;-66
2023/10/05 07:46:43;;;;;;;2.35;1.13;;;14.90;99.90;;;;;;5053635;28;20032;-66
2023/10/05 07:49:09;;;;;;;2.17;0.82;;;15.20;99.90;;;;;;5053694;28;20037;-66
2023/10/05 07:51:35;;;;;;;1.58;1.08;;;14.80;99.90;;;;;;5053579;28;20041;-65
2023/10/05 07:54:00;;;;;;;5.00;1.55;;;14.90;99.90;;;;;;5035529;28;20393;-65
2023/10/05 07:56:26;;;;;;;1.45;0.85;;;14.90;99.90;;;;;;5053580;28;20040;-66
2023/10/05 07:58:52;;;;;;;2.25;0.82;;;15.00;99.90;;;;;;5053681;28;20037;-65
2023/10/05 08:01:18;;;;;;;3.10;1.23;;;15.10;99.90;;;;;;5053532;28;20040;-65
2023/10/05 08:03:45;;;;;;;2.70;1.23;;;15.10;99.90;;;;;;5035336;28;20095;-64
2023/10/05 08:06:15;;;;;;;2.72;1.27;;;15.10;99.90;;;;;;5053228;28;20052;-64
2023/10/05 08:08:41;;;;;;;2.60;1.17;;;15.10;99.90;;;;;;5053300;28;20116;-64
2023/10/05 08:11:07;;;;;;;2.00;1.17;;;15.20;99.90;;;;;;5053339;28;20430;-64
2023/10/05 08:13:33;;;;;;;2.55;1.33;;;15.20;99.90;;;;;;5053409;28;20120;-66
2023/10/05 08:15:58;;;;;;;1.70;0.85;;;15.20;99.90;;;;;;5052950;28;20043;-64
2023/10/05 08:18:25;;;;;;;2.17;1.00;;;15.20;99.90;;;;;;5053286;28;20044;-64
2023/10/05 08:20:53;;;;;;;2.97;1.33;;;15.20;99.90;;;;;;5053117;28;20043;-64
2023/10/05 08:23:19;;;;;;;1.95;1.10;;;15.20;99.90;;;;;;5053131;28;20083;-64
2023/10/05 08:25:46;;;;;;;2.25;1.23;;;15.20;99.90;;;;;;5052651;28;20040;-64
2023/10/05 08:28:12;;;;;;;2.28;1.00;;;15.30;99.90;;;;;;5053004;28;20043;-64
2023/10/05 08:30:49;;;;;;;2.08;1.02;;;15.30;99.90;;;;;;5018360;28;20041;-65
2023/10/05 08:33:19;;;;;;;1.58;1.02;;;15.30;99.90;;;;;;5052791;28;20051;-64
2023/10/05 08:35:44;;;;;;;2.13;1.08;;;15.30;99.90;;;;;;5052948;28;20384;-64
2023/10/05 08:38:15;;;;;;;2.08;1.00;;;15.30;99.90;;;;;;5018377;28;20045;-64
2023/10/05 08:40:45;;;;;;;1.45;0.90;;;15.30;99.90;;;;;;5052887;28;20399;-65
2023/10/05 08:43:11;;;;;;;3.30;1.27;;;15.20;99.90;;;;;;5053045;28;20040;-64
2023/10/05 08:45:46;;;;;;;2.83;1.10;;;15.20;99.90;;;;;;5034693;28;20045;-64
2023/10/05 08:48:20;;;;;;;2.28;1.10;;;15.20;99.90;;;;;;5052838;28;20118;-64
2023/10/05 08:50:53;;;;;;;2.08;1.40;;;15.20;99.90;;;;;;5035515;28;20076;-66
2023/10/05 08:53:20;;;;;;;2.28;0.85;;;15.20;99.90;;;;;;5057037;28;20373;-66
2023/10/05 08:55:49;;;;;;;2.92;1.35;;;15.10;99.90;;;;;;5056986;28;20045;-66
2023/10/05 08:58:18;;;;;;;2.30;0.95;;;15.10;99.90;;;;;;5056685;28;20056;-65
2023/10/05 09:00:45;;;;;;;4.90;1.45;;;15.10;99.90;;;;;;5056893;28;20061;-65
2023/10/05 09:03:29;;;;;;;3.30;1.42;;;15.50;99.90;;;;;;5056932;28;20430;-64
2023/10/05 09:06:20;;;;;;;2.53;1.33;;;15.10;99.90;;;;;;5038545;28;20409;-64
2023/10/05 09:11:33;;;;;;;1.50;0.98;;;15.10;99.90;;;;;;5056678;28;20045;-64
2023/10/05 09:14:12;;;;;;;4.05;1.20;;;15.20;99.90;;;;;;5056622;28;20033;-64
2023/10/05 09:16:41;;;;;;;1.88;1.20;;;15.20;99.90;;;;;;5038697;28;20128;-64
2023/10/05 09:19:17;;;;;;;1.42;1.00;;;15.30;99.90;;;;;;5038362;28;20076;-64
2023/10/05 09:24:25;;;;;;;2.17;1.20;;;15.50;99.90;;;;;;5056518;28;20568;-64
2023/10/05 09:27:09;;;;;;;2.45;1.02;;;15.50;99.90;;;;;;5038121;28;20048;-64
2023/10/05 09:29:36;;;;;;;1.75;1.25;;;15.60;99.90;;;;;;5056309;28;20485;-64
2023/10/05 09:32:08;;;;;;;2.10;1.10;;;15.70;99.90;;;;;;5038124;28;20127;-64
2023/10/05 09:34:34;;;;;;;3.05;1.13;;;15.70;99.90;;;;;;5038085;28;20400;-64
2023/10/05 09:37:05;;;;;;;1.33;1.00;;;15.80;99.90;;;;;;5055900;28;20040;-64
2023/10/05 09:39:53;;;;;;;1.63;0.95;;;15.90;99.90;;;;;;5055859;28;20445;-64
2023/10/05 09:42:26;;;;;;;2.25;1.00;;;16.00;99.90;;;;;;5056063;28;20073;-64
2023/10/05 09:44:54;;;;;;;3.08;1.33;;;16.00;99.90;;;;;;5055755;28;20033;-65
2023/10/05 09:47:32;;;;;;;1.95;1.08;;;16.00;99.90;;;;;;5055877;28;20043;-65
2023/10/05 09:50:09;;;;;;;1.63;1.00;;;16.00;99.90;;;;;;5055652;28;20090;-64
2023/10/05 09:52:45;;;;;;;2.33;1.13;;;16.00;99.90;;;;;;5055829;28;20041;-64
2023/10/05 09:55:18;;;;;;;2.00;0.93;;;15.90;99.90;;;;;;5055888;28;20041;-65
2023/10/05 09:57:51;;;;;;;2.05;1.15;;;15.80;99.90;;;;;;5055514;28;20049;-66
2023/10/05 10:00:47;;;;;;;2.92;1.33;;;15.80;99.90;;;;;;5055775;28;20102;-65
2023/10/05 10:03:17;;;;;;;2.17;0.88;;;15.80;99.90;;;;;;5055633;28;20412;-64
2023/10/05 10:05:51;;;;;;;2.08;0.98;;;15.80;99.90;;;;;;5055292;28;20044;-64
2023/10/05 10:08:24;;;;;;;0.68;0.50;;;15.80;99.90;;;;;;5055401;28;20119;-64
2023/10/05 10:11:06;;;;;;;1.00;0.80;;;15.80;99.90;;;;;;5055340;28;20041;-64
2023/10/05 10:13:43;;;;;;;1.15;0.73;;;15.70;99.90;;;;;;5055321;28;20048;-65
2023/10/05 10:16:17;;;;;;;1.38;0.68;;;15.80;99.90;;;;;;5037437;28;20052;-64
2023/10/05 10:18:45;;;;;;;1.45;0.98;;;15.80;99.90;;;;;;5055353;28;20542;-64
2023/10/05 10:21:32;;;;;;;1.05;0.88;;;16.10;99.90;;;;;;5055472;28;20041;-64
2023/10/05 10:24:06;;;;;;;0.55;0.50;;;15.80;99.90;;;;;;5055323;28;20128;-64
2023/10/05 10:26:53;;;;;;;1.17;0.93;;;15.90;99.90;;;;;;5055163;28;20041;-64
2023/10/05 10:29:22;;;;;;;0.80;0.75;;;15.90;99.90;;;;;;5037282;28;20067;-64
2023/10/05 10:32:20;;;;;;;0.98;0.77;;;16.00;99.90;;;;;;5055183;28;20045;-65
2023/10/05 10:34:55;;;;;;;1.55;1.08;;;16.00;99.90;;;;;;5054727;28;20127;-64
2023/10/05 10:37:40;;;;;;;1.15;0.80;;;16.00;99.90;;;;;;5055048;28;20128;-64
2023/10/05 10:40:25;;;;;;;0.65;0.60;;;16.10;99.90;;;;;;5037185;28;20052;-64
2023/10/05 10:45:33;;;;;;;0.80;0.57;;;16.10;99.90;;;;;;5055240;28;20040;-64
2023/10/05 10:47:59;;;;;;;1.70;0.85;;;16.20;99.90;;;;;;5054867;28;20044;-64
2023/10/05 10:50:37;;;;;;;1.02;0.60;;;16.20;99.90;;;;;;5054889;28;20037;-64
2023/10/05 10:53:16;;;;;;;0.88;0.73;;;16.40;99.90;;;;;;5036956;28;20051;-67
2023/10/05 10:55:48;;;;;;;0.68;0.68;;;16.70;99.90;;;;;;5036601;28;20086;-64
2023/10/05 10:58:16;;;;;;;1.27;0.70;;;16.50;99.90;;;;;;5054696;28;20048;-65
2023/10/05 11:01:28;;;;;;;1.70;0.98;;;16.50;99.90;;;;;;5036500;28;20045;-65
2023/10/05 11:03:55;;;;;;;1.50;0.75;;;16.50;99.90;;;;;;5054640;28;20098;-64
2023/10/05 11:06:23;;;;;;;1.17;0.70;;;16.50;99.90;;;;;;5036367;28;20053;-64
2023/10/05 11:08:52;;;;;;;6.53;1.95;;;16.50;99.90;;;;;;5054415;28;20045;-64
2023/10/05 11:11:21;;;;;;;1.63;0.85;;;16.50;99.90;;;;;;5036236;28;20044;-65
2023/10/05 11:13:57;;;;;;;4.30;1.75;;;16.60;99.90;;;;;;5053801;28;20366;-65
2023/10/05 11:16:35;;;;;;;2.25;1.30;;;16.80;99.90;;;;;;5054037;28;20048;-65
2023/10/05 11:19:04;;;;;;;2.28;1.00;;;16.80;99.90;;;;;;5054005;28;20047;-65
2023/10/05 11:21:43;;;;;;;2.55;1.38;;;17.00;99.90;;;;;;5054186;28;20045;-65
2023/10/05 11:24:09;;;;;;;2.92;1.73;;;17.00;99.90;;;;;;5054310;28;20128;-65
2023/10/05 11:29:28;;;;;;;1.33;0.98;;;16.80;99.90;;;;;;5036196;28;20120;-66
2023/10/05 11:32:01;;;;;;;2.35;0.90;;;16.80;99.90;;;;;;5054403;28;20481;-66
2023/10/05 11:34:38;;;;;;;1.85;1.20;;;16.80;99.90;;;;;;5035755;28;20475;-66
2023/10/05 11:37:15;;;;;;;2.88;1.10;;;16.90;99.90;;;;;;5053635;28;20048;-66
2023/10/05 11:39:41;;;;;;;1.17;0.68;;;17.50;99.90;;;;;;5053848;28;20043;-66
2023/10/05 11:42:10;;;;;;;1.85;0.90;;;17.30;99.90;;;;;;5036121;28;20059;-66
2023/10/05 11:44:38;;;;;;;1.98;1.13;;;17.50;99.90;;;;;;5053467;28;20045;-66
2023/10/05 11:47:07;;;;;;;2.30;1.58;;;17.50;99.90;;;;;;5035492;28;20048;-66
2023/10/05 11:49:33;;;;;;;1.35;1.02;;;17.50;99.90;;;;;;5035674;28;20072;-66
2023/10/05 11:52:03;;;;;;;2.85;1.15;;;17.60;99.90;;;;;;5053431;28;20033;-66
2023/10/05 11:54:32;;;;;;;1.63;1.07;;;17.60;99.90;;;;;;5035551;28;20052;-66
2023/10/05 11:56:58;;;;;;;1.40;0.90;;;17.60;99.90;;;;;;5035465;28;20272;-66
2023/10/05 11:59:28;;;;;;;1.02;0.93;;;17.50;99.90;;;;;;5053534;28;20044;-65
2023/10/05 12:01:53;;;;;;;1.25;0.90;;;17.30;99.90;;;;;;5053465;28;20045;-65
2023/10/05 12:04:26;;;;;;;1.52;0.90;;;16.90;99.90;;;;;;5053506;28;20044;-65
2023/10/05 12:06:58;;;;;;;1.63;1.10;;;16.70;99.90;;;;;;5053307;28;20538;-65
2023/10/05 12:09:42;;;;;;;0.95;0.80;;;16.40;99.90;;;;;;5053463;28;20040;-65
2023/10/05 12:12:13;;;;;;;1.40;0.63;;;16.30;99.90;;;;;;5053340;28;20033;-66
2023/10/05 12:14:39;;;;;;;1.05;0.85;;;16.10;99.90;;;;;;5053256;28;20052;-66
2023/10/05 12:17:05;;;;;;;1.65;0.95;;;16.00;99.90;;;;;;5035416;28;20044;-66
2023/10/05 12:19:33;;;;;;;0.63;0.60;;;16.10;99.90;;;;;;5052922;28;20404;-66
2023/10/05 12:22:13;;;;;;;0.95;0.60;;;16.00;99.90;;;;;;5034955;28;20460;-66
2023/10/05 12:24:39;;;;;;;0.50;0.47;;;16.00;99.90;;;;;;5034770;28;20044;-66
2023/10/05 12:27:13;;;;;;;0.95;0.80;;;16.00;99.90;;;;;;5052344;28;20048;-66
2023/10/05 12:29:42;;;;;;;1.10;0.80;;;16.10;99.90;;;;;;5052925;28;20037;-66
2023/10/05 12:32:13;;;;;;;0.90;0.80;;;16.20;99.90;;;;;;5034919;28;20045;-66
2023/10/05 12:34:41;;;;;;;0.95;0.70;;;16.40;99.90;;;;;;5052652;28;20504;-65
2023/10/05 12:37:08;;;;;;;0.57;0.47;;;16.50;99.90;;;;;;5034797;28;20131;-65
2023/10/05 12:39:33;;;;;;;1.23;0.90;;;16.60;99.90;;;;;;5052898;28;20498;-65
2023/10/05 12:42:00;;;;;;;1.17;0.93;;;16.70;99.90;;;;;;5052849;28;20041;-65
2023/10/05 12:44:27;;;;;;;1.92;0.80;;;16.70;99.90;;;;;;5052871;28;20114;-65
2023/10/05 12:46:53;;;;;;;1.23;0.75;;;17.00;99.90;;;;;;5052688;28;20374;-65
2023/10/05 12:49:20;;;;;;;2.22;0.90;;;17.10;99.90;;;;;;5052863;28;20143;-64
2023/10/05 12:51:47;;;;;;;1.88;1.23;;;17.10;99.90;;;;;;5018177;28;20041;-65
2023/10/05 12:54:28;;;;;;;2.40;1.23;;;17.00;99.90;;;;;;5052491;28;20033;-65
2023/10/05 12:56:55;;;;;;;1.00;0.82;;;16.90;99.90;;;;;;5052531;28;20554;-65
2023/10/05 12:59:21;;;;;;;1.60;1.08;;;16.90;99.90;;;;;;5034603;28;20129;-65
2023/10/05 13:01:47;;;;;;;1.33;0.88;;;16.80;99.90;;;;;;5052631;28;20033;-65
2023/10/05 13:04:14;;;;;;;1.70;0.90;;;16.80;99.90;;;;;;5052498;28;20045;-66
2023/10/05 13:06:41;;;;;;;2.25;1.02;;;16.70;99.90;;;;;;5052600;28;20447;-66
2023/10/05 13:09:13;;;;;;;2.28;0.90;;;16.70;99.90;;;;;;5034817;28;20047;-66
2023/10/05 13:11:47;;;;;;;2.25;1.35;;;16.70;99.90;;;;;;5034836;28;20045;-66
2023/10/05 13:14:18;;;;;;;2.63;1.20;;;16.70;99.90;;;;;;5034762;28;20041;-66
2023/10/05 13:16:48;;;;;;;2.15;1.05;;;16.60;99.90;;;;;;5052652;28;20049;-66
2023/10/05 13:19:14;;;;;;;1.92;1.13;;;16.60;99.90;;;;;;5052684;28;20045;-66
2023/10/05 13:21:42;;;;;;;2.05;1.05;;;16.60;99.90;;;;;;5052386;28;20430;-66
2023/10/05 13:24:11;;;;;;;1.77;0.80;;;16.40;99.90;;;;;;5052583;28;20056;-66
2023/10/05 13:26:44;;;;;;;3.10;1.75;;;16.40;99.90;;;;;;5052389;28;20048;-66
2023/10/05 13:29:11;;;;;;;1.85;0.90;;;16.30;99.90;;;;;;5034842;28;20112;-67
2023/10/05 13:31:38;;;;;;;1.17;0.70;;;16.20;99.90;;;;;;5052510;28;20045;-66